Time,TemperatureF,DewpointF,PressureIn,WindDirection,WindDirectionDegrees,WindSpeedMPH,WindSpeedGustMPH,Humidity,HourlyPrecipIn,Conditions,Clouds,dailyrainin,SoftwareType,DateUTC
2013-08-16 00:02:00,65.3,62.2,30.06,NNW,343,0.0,0.0,89,0.00,,,-99.99,Meteorologica,2013-08-16 05:02:00,
2013-08-16 00:07:00,65.2,62.2,30.07,NNW,343,0.0,0.0,90,0.00,,,-99.99,Meteorologica,2013-08-16 05:07:00,
2013-08-16 00:12:00,65.0,62.0,30.07,NNW,343,0.0,0.0,90,0.00,,,-99.99,Meteorologica,2013-08-16 05:12:00,
2013-08-16 00:20:00,64.9,62.0,30.07,SSW,203,0.0,5.1,90,0.00,,,-99.99,Meteorologica,2013-08-16 05:20:00,
2013-08-16 00:25:00,64.8,61.9,30.07,SSW,203,0.0,0.0,90,0.00,,,-99.99,Meteorologica,2013-08-16 05:25:00,
2013-08-16 00:30:00,64.7,61.8,30.07,SSW,203,0.0,0.0,90,0.00,,,-99.99,Meteorologica,2013-08-16 05:30:00,
2013-08-16 00:35:00,64.7,61.8,30.07,SSW,203,0.0,0.0,90,0.00,,,-99.99,Meteorologica,2013-08-16 05:35:00,
2013-08-16 00:40:00,64.5,61.6,30.07,SSW,203,0.0,0.0,90,0.00,,,-99.99,Meteorologica,2013-08-16 05:40:00,
2013-08-16 00:45:00,64.4,61.6,30.07,SSW,203,0.0,0.0,90,0.00,,,-99.99,Meteorologica,2013-08-16 05:45:00,
2013-08-16 00:50:00,64.3,61.5,30.07,SSW,203,0.0,0.0,90,0.00,,,-99.99,Meteorologica,2013-08-16 05:50:00,
2013-08-16 00:55:00,64.2,61.4,30.07,SSW,203,0.0,0.0,90,0.00,,,-99.99,Meteorologica,2013-08-16 05:55:00,
2013-08-16 01:00:00,64.1,61.3,30.08,SSW,203,0.0,0.0,90,0.00,,,-99.99,Meteorologica,2013-08-16 06:00:00,
2013-08-16 01:05:00,64.1,61.4,30.08,SSW,203,0.0,0.0,91,0.00,,,-99.99,Meteorologica,2013-08-16 06:05:00,
2013-08-16 01:10:00,64.1,61.4,30.07,SSW,203,0.0,0.0,90,0.00,,,-99.99,Meteorologica,2013-08-16 06:10:00,
2013-08-16 01:15:00,64.1,61.4,30.07,SSW,203,0.0,0.0,90,0.00,,,-99.99,Meteorologica,2013-08-16 06:15:00,
2013-08-16 01:20:00,64.1,61.4,30.07,SSW,203,0.0,0.0,90,0.00,,,-99.99,Meteorologica,2013-08-16 06:20:00,
2013-08-16 01:25:00,64.0,61.3,30.07,SSW,203,0.0,0.0,90,0.00,,,-99.99,Meteorologica,2013-08-16 06:25:00,
2013-08-16 01:30:00,63.8,61.1,30.07,SSW,203,0.0,0.0,91,0.00,,,-99.99,Meteorologica,2013-08-16 06:30:00,
2013-08-16 01:35:00,63.7,61.1,30.07,SSW,203,0.0,0.0,91,0.00,,,-99.99,Meteorologica,2013-08-16 06:35:00,
2013-08-16 01:40:00,63.5,60.9,30.07,SSW,203,0.0,0.0,91,0.00,,,-99.99,Meteorologica,2013-08-16 06:40:00,
2013-08-16 01:45:00,63.4,60.8,30.07,SSW,203,0.0,0.0,91,0.00,,,-99.99,Meteorologica,2013-08-16 06:45:00,
2013-08-16 01:50:00,63.2,60.7,30.07,SSW,203,0.0,0.0,91,0.00,,,-99.99,Meteorologica,2013-08-16 06:50:00,
2013-08-16 01:55:00,63.1,60.6,30.08,SSW,203,0.0,0.0,91,0.00,,,-99.99,Meteorologica,2013-08-16 06:55:00,
2013-08-16 02:00:00,63.0,60.5,30.08,SSW,203,0.0,0.0,91,0.00,,,-99.99,Meteorologica,2013-08-16 07:00:00,
2013-08-16 02:05:00,62.9,60.4,30.07,SSW,203,0.0,0.0,91,0.00,,,-99.99,Meteorologica,2013-08-16 07:05:00,
2013-08-16 02:10:00,62.7,60.2,30.08,SSW,203,0.0,0.0,91,0.00,,,-99.99,Meteorologica,2013-08-16 07:10:00,
2013-08-16 02:15:00,62.6,60.2,30.08,SSW,203,0.0,0.0,91,0.00,,,-99.99,Meteorologica,2013-08-16 07:15:00,
2013-08-16 02:20:00,62.5,60.1,30.08,SSW,203,0.0,0.0,92,0.00,,,-99.99,Meteorologica,2013-08-16 07:20:00,
2013-08-16 02:25:00,62.3,59.9,30.08,SSW,203,0.0,0.0,92,0.00,,,-99.99,Meteorologica,2013-08-16 07:25:00,
2013-08-16 02:30:00,62.3,59.9,30.07,SSW,203,0.0,0.0,92,0.00,,,-99.99,Meteorologica,2013-08-16 07:30:00,
2013-08-16 02:35:00,62.2,59.9,30.08,SSW,203,0.0,0.0,92,0.00,,,-99.99,Meteorologica,2013-08-16 07:35:00,
2013-08-16 02:40:00,62.1,59.8,30.07,SSW,203,0.0,0.0,92,0.00,,,-99.99,Meteorologica,2013-08-16 07:40:00,
2013-08-16 02:45:00,62.1,59.8,30.07,SSW,203,0.0,0.0,92,0.00,,,-99.99,Meteorologica,2013-08-16 07:45:00,
2013-08-16 02:50:00,62.2,60.0,30.07,SSW,203,0.0,0.0,92,0.00,,,-99.99,Meteorologica,2013-08-16 07:50:00,
2013-08-16 02:55:00,62.3,60.0,30.07,SSW,203,0.0,0.0,92,0.00,,,-99.99,Meteorologica,2013-08-16 07:55:00,
2013-08-16 03:00:00,62.4,60.1,30.07,SE,124,0.0,0.0,92,0.00,,,-99.99,Meteorologica,2013-08-16 08:00:00,
2013-08-16 03:05:00,62.5,60.1,30.07,SE,124,0.0,0.0,92,0.00,,,-99.99,Meteorologica,2013-08-16 08:05:00,
2013-08-16 03:10:00,62.6,60.2,30.07,ESE,111,0.0,3.1,91,0.00,,,-99.99,Meteorologica,2013-08-16 08:10:00,
2013-08-16 03:15:00,62.7,60.2,30.07,ESE,111,0.0,0.0,91,0.00,,,-99.99,Meteorologica,2013-08-16 08:15:00,
2013-08-16 03:20:00,62.7,60.2,30.07,ESE,111,0.0,0.0,91,0.00,,,-99.99,Meteorologica,2013-08-16 08:20:00,
2013-08-16 03:25:00,62.8,60.2,30.07,ESE,111,0.0,0.0,91,0.00,,,-99.99,Meteorologica,2013-08-16 08:25:00,
2013-08-16 03:30:00,62.8,60.2,30.08,ESE,111,0.0,0.0,91,0.00,,,-99.99,Meteorologica,2013-08-16 08:30:00,
2013-08-16 03:35:00,62.8,60.2,30.07,ESE,111,0.0,0.0,91,0.00,,,-99.99,Meteorologica,2013-08-16 08:35:00,
2013-08-16 03:40:00,62.7,60.1,30.07,ESE,111,0.0,0.0,91,0.00,,,-99.99,Meteorologica,2013-08-16 08:40:00,
2013-08-16 03:45:00,62.8,60.2,30.08,ESE,111,0.0,0.0,91,0.00,,,-99.99,Meteorologica,2013-08-16 08:45:00,
2013-08-16 03:50:00,62.7,60.0,30.08,ESE,111,0.0,0.0,91,0.00,,,-99.99,Meteorologica,2013-08-16 08:50:00,
2013-08-16 03:55:00,62.7,60.0,30.08,ESE,111,0.0,0.0,91,0.00,,,-99.99,Meteorologica,2013-08-16 08:55:00,
2013-08-16 04:00:00,62.7,60.1,30.08,ESE,111,0.0,0.0,91,0.00,,,-99.99,Meteorologica,2013-08-16 09:00:00,
2013-08-16 04:05:00,62.5,59.9,30.08,ESE,111,0.0,0.0,91,0.00,,,-99.99,Meteorologica,2013-08-16 09:05:00,
2013-08-16 04:10:00,62.4,59.8,30.08,ESE,111,0.0,0.0,91,0.00,,,-99.99,Meteorologica,2013-08-16 09:10:00,
2013-08-16 04:15:00,62.3,59.8,30.08,ESE,111,0.0,0.0,91,0.00,,,-99.99,Meteorologica,2013-08-16 09:15:00,
2013-08-16 04:20:00,62.2,59.7,30.08,ESE,111,0.0,0.0,91,0.00,,,-99.99,Meteorologica,2013-08-16 09:20:00,
2013-08-16 04:25:00,62.3,59.8,30.08,ESE,111,0.0,0.0,91,0.00,,,-99.99,Meteorologica,2013-08-16 09:25:00,
2013-08-16 04:30:00,62.2,59.7,30.08,ESE,111,0.0,0.0,91,0.00,,,-99.99,Meteorologica,2013-08-16 09:30:00,
2013-08-16 04:35:00,62.3,59.9,30.08,ESE,111,0.0,0.0,91,0.00,,,-99.99,Meteorologica,2013-08-16 09:35:00,
2013-08-16 04:40:00,62.3,59.9,30.08,ESE,111,0.0,0.0,91,0.00,,,-99.99,Meteorologica,2013-08-16 09:40:00,
2013-08-16 04:45:00,62.4,59.9,30.08,North,359,0.0,3.3,91,0.00,,,-99.99,Meteorologica,2013-08-16 09:45:00,
2013-08-16 04:50:00,62.5,60.0,30.08,North,359,0.0,0.0,91,0.00,,,-99.99,Meteorologica,2013-08-16 09:50:00,
2013-08-16 04:55:00,62.6,60.0,30.08,North,359,0.0,0.0,91,0.00,,,-99.99,Meteorologica,2013-08-16 09:55:00,
2013-08-16 05:00:00,62.7,60.1,30.08,North,359,0.0,0.0,91,0.00,,,-99.99,Meteorologica,2013-08-16 10:00:00,
2013-08-16 05:05:00,62.7,60.0,30.08,SSE,155,0.0,3.4,91,0.00,,,-99.99,Meteorologica,2013-08-16 10:05:00,
2013-08-16 05:10:00,62.8,60.1,30.08,SSE,155,0.0,0.0,90,0.00,,,-99.99,Meteorologica,2013-08-16 10:10:00,
2013-08-16 05:15:00,62.7,60.0,30.08,SSE,155,0.0,0.0,90,0.00,,,-99.99,Meteorologica,2013-08-16 10:15:00,
2013-08-16 05:20:00,62.6,59.9,30.08,SSE,155,0.0,0.0,91,0.00,,,-99.99,Meteorologica,2013-08-16 10:20:00,
2013-08-16 05:25:00,62.6,59.9,30.08,SSE,155,0.0,0.0,91,0.00,,,-99.99,Meteorologica,2013-08-16 10:25:00,
2013-08-16 05:30:00,62.5,59.8,30.08,SSE,155,0.0,0.0,91,0.00,,,-99.99,Meteorologica,2013-08-16 10:30:00,
2013-08-16 05:35:00,62.3,59.7,30.08,SSE,155,0.0,0.0,91,0.00,,,-99.99,Meteorologica,2013-08-16 10:35:00,
2013-08-16 05:40:00,62.3,59.7,30.08,SSE,155,0.0,0.0,91,0.00,,,-99.99,Meteorologica,2013-08-16 10:40:00,
2013-08-16 05:45:00,62.2,59.6,30.08,SSE,155,0.0,0.0,91,0.00,,,-99.99,Meteorologica,2013-08-16 10:45:00,
2013-08-16 05:50:00,62.2,59.6,30.09,SE,143,0.0,3.0,91,0.00,,,-99.99,Meteorologica,2013-08-16 10:50:00,
2013-08-16 05:55:00,62.3,59.7,30.08,SE,143,0.0,0.0,91,0.00,,,-99.99,Meteorologica,2013-08-16 10:55:00,
2013-08-16 06:00:00,62.3,59.7,30.09,SE,143,0.0,0.0,91,0.00,,,-99.99,Meteorologica,2013-08-16 11:00:00,
2013-08-16 06:05:00,62.4,59.8,30.09,SE,143,0.0,0.0,91,0.00,,,-99.99,Meteorologica,2013-08-16 11:05:00,
2013-08-16 06:10:00,62.5,59.9,30.09,SE,143,0.0,0.0,91,0.00,,,-99.99,Meteorologica,2013-08-16 11:10:00,
2013-08-16 06:15:00,62.6,59.9,30.09,South,187,0.0,4.6,91,0.00,,,-99.99,Meteorologica,2013-08-16 11:15:00,
2013-08-16 06:20:00,62.8,60.0,30.09,South,187,0.0,0.0,90,0.00,,,-99.99,Meteorologica,2013-08-16 11:20:00,
2013-08-16 06:25:00,63.0,60.3,30.09,SSE,156,0.1,4.3,90,0.00,,,-99.99,Meteorologica,2013-08-16 11:25:00,
2013-08-16 06:30:00,63.2,60.3,30.09,SSE,156,0.5,2.9,90,0.00,,,-99.99,Meteorologica,2013-08-16 11:30:00,
2013-08-16 06:35:00,63.3,60.3,30.09,ESE,119,2.3,4.5,90,0.00,,,-99.99,Meteorologica,2013-08-16 11:35:00,
2013-08-16 06:40:00,63.4,60.4,30.09,ESE,119,0.0,0.0,89,0.00,,,-99.99,Meteorologica,2013-08-16 11:40:00,
2013-08-16 06:45:00,63.4,60.3,30.09,ESE,119,0.0,0.0,89,0.00,,,-99.99,Meteorologica,2013-08-16 11:45:00,
2013-08-16 06:50:00,63.4,60.3,30.09,ESE,119,0.0,0.0,89,0.00,,,-99.99,Meteorologica,2013-08-16 11:50:00,
2013-08-16 06:55:00,63.5,60.4,30.10,ESE,119,0.0,0.0,89,0.00,,,-99.99,Meteorologica,2013-08-16 11:55:00,
2013-08-16 07:00:00,63.5,60.4,30.10,ESE,119,0.0,0.0,89,0.00,,,-99.99,Meteorologica,2013-08-16 12:00:00,
2013-08-16 07:05:00,63.4,60.3,30.10,ESE,119,0.0,0.0,89,0.00,,,-99.99,Meteorologica,2013-08-16 12:05:00,
2013-08-16 07:10:00,63.6,60.4,30.10,ESE,119,0.0,0.0,89,0.00,,,-99.99,Meteorologica,2013-08-16 12:10:00,
2013-08-16 07:15:00,63.7,60.5,30.10,ESE,119,0.0,0.0,89,0.00,,,-99.99,Meteorologica,2013-08-16 12:15:00,
2013-08-16 07:20:00,63.7,60.3,30.11,ESE,119,0.0,0.0,88,0.00,,,-99.99,Meteorologica,2013-08-16 12:20:00,
2013-08-16 07:25:00,63.8,60.5,30.11,ESE,119,0.0,0.0,89,0.00,,,-99.99,Meteorologica,2013-08-16 12:25:00,
2013-08-16 07:30:00,63.8,60.4,30.11,ESE,119,0.0,0.0,88,0.00,,,-99.99,Meteorologica,2013-08-16 12:30:00,
2013-08-16 07:35:00,63.9,60.4,30.11,ESE,119,0.0,0.0,88,0.00,,,-99.99,Meteorologica,2013-08-16 12:35:00,
2013-08-16 07:40:00,64.0,60.5,30.12,ESE,119,0.0,0.0,88,0.00,,,-99.99,Meteorologica,2013-08-16 12:40:00,
2013-08-16 07:45:00,64.1,60.6,30.11,ESE,119,0.0,0.0,88,0.00,,,-99.99,Meteorologica,2013-08-16 12:45:00,
2013-08-16 07:50:00,64.1,60.6,30.12,ESE,119,0.0,0.0,88,0.00,,,-99.99,Meteorologica,2013-08-16 12:50:00,
2013-08-16 07:55:00,64.2,60.7,30.12,ESE,119,0.0,0.0,88,0.00,,,-99.99,Meteorologica,2013-08-16 12:55:00,
2013-08-16 08:00:00,64.3,60.6,30.11,ESE,119,0.0,0.0,87,0.00,,,-99.99,Meteorologica,2013-08-16 13:00:00,
2013-08-16 08:05:00,64.3,60.5,30.11,SE,143,1.0,4.2,87,0.00,,,-99.99,Meteorologica,2013-08-16 13:05:00,
2013-08-16 08:10:00,64.4,60.6,30.11,ESE,108,0.0,3.2,87,0.00,,,-99.99,Meteorologica,2013-08-16 13:10:00,
2013-08-16 08:15:00,64.4,60.5,30.11,SW,217,1.0,2.9,87,0.00,,,-99.99,Meteorologica,2013-08-16 13:15:00,
2013-08-16 08:20:00,64.6,60.5,30.11,ESE,120,1.4,7.3,86,0.00,,,-99.99,Meteorologica,2013-08-16 13:20:00,
2013-08-16 08:25:00,64.8,60.7,30.11,ESE,111,0.0,4.2,86,0.00,,,-99.99,Meteorologica,2013-08-16 13:25:00,
2013-08-16 08:30:00,64.9,60.7,30.11,SE,136,0.3,5.0,86,0.00,,,-99.99,Meteorologica,2013-08-16 13:30:00,
2013-08-16 08:35:00,64.9,60.6,30.12,SE,136,0.0,1.9,86,0.00,,,-99.99,Meteorologica,2013-08-16 13:35:00,
2013-08-16 08:40:00,65.0,60.6,30.12,East,94,0.4,3.4,85,0.00,,,-99.99,Meteorologica,2013-08-16 13:40:00,
2013-08-16 08:45:00,65.0,60.3,30.13,East,101,3.1,6.4,84,0.00,,,-99.99,Meteorologica,2013-08-16 13:45:00,
2013-08-16 08:50:00,65.1,60.6,30.12,ENE,74,1.3,5.3,85,0.00,,,-99.99,Meteorologica,2013-08-16 13:50:00,
2013-08-16 08:55:00,65.2,60.6,30.12,East,80,2.8,7.1,85,0.00,,,-99.99,Meteorologica,2013-08-16 13:55:00,
2013-08-16 09:00:00,65.4,60.9,30.12,South,173,0.0,5.1,85,0.00,,,-99.99,Meteorologica,2013-08-16 14:00:00,
2013-08-16 09:05:00,65.6,60.7,30.12,NNE,33,2.4,7.3,84,0.00,,,-99.99,Meteorologica,2013-08-16 14:05:00,
2013-08-16 09:10:00,65.8,60.8,30.12,ESE,103,4.5,8.3,83,0.00,,,-99.99,Meteorologica,2013-08-16 14:10:00,
2013-08-16 09:15:00,66.0,60.9,30.12,ESE,115,0.6,6.1,83,0.00,,,-99.99,Meteorologica,2013-08-16 14:15:00,
2013-08-16 09:20:00,66.2,60.9,30.12,SSE,160,0.6,7.8,83,0.00,,,-99.99,Meteorologica,2013-08-16 14:20:00,
2013-08-16 09:25:00,66.3,61.0,30.12,SSE,163,2.6,8.6,82,0.00,,,-99.99,Meteorologica,2013-08-16 14:25:00,
2013-08-16 09:30:00,66.6,61.1,30.13,SE,138,2.8,9.1,82,0.00,,,-99.99,Meteorologica,2013-08-16 14:30:00,
2013-08-16 09:35:00,66.6,60.7,30.13,SSE,162,3.0,5.2,81,0.00,,,-99.99,Meteorologica,2013-08-16 14:35:00,
2013-08-16 09:40:00,66.7,61.1,30.13,South,172,1.0,7.2,82,0.00,,,-99.99,Meteorologica,2013-08-16 14:40:00,
2013-08-16 09:45:00,66.9,60.7,30.12,South,186,0.0,3.5,80,0.00,,,-99.99,Meteorologica,2013-08-16 14:45:00,
2013-08-16 09:50:00,67.1,60.8,30.13,East,86,1.6,6.9,79,0.00,,,-99.99,Meteorologica,2013-08-16 14:50:00,
2013-08-16 09:55:00,67.3,61.0,30.14,SE,137,1.4,5.8,80,0.00,,,-99.99,Meteorologica,2013-08-16 14:55:00,
2013-08-16 10:00:00,67.6,61.1,30.14,SW,231,5.1,8.8,79,0.00,,,-99.99,Meteorologica,2013-08-16 15:00:00,
2013-08-16 10:05:00,67.8,61.4,30.14,SSW,199,0.0,5.6,79,0.00,,,-99.99,Meteorologica,2013-08-16 15:05:00,
2013-08-16 10:10:00,67.9,61.5,30.14,SSW,199,0.0,0.0,79,0.00,,,-99.99,Meteorologica,2013-08-16 15:10:00,
2013-08-16 10:15:00,68.1,61.1,30.14,SSE,158,0.0,7.3,78,0.00,,,-99.99,Meteorologica,2013-08-16 15:15:00,
2013-08-16 10:20:00,68.0,61.1,30.14,South,177,1.1,5.9,78,0.00,,,-99.99,Meteorologica,2013-08-16 15:20:00,
2013-08-16 10:25:00,68.2,61.4,30.14,South,179,0.4,5.2,78,0.00,,,-99.99,Meteorologica,2013-08-16 15:25:00,
2013-08-16 10:30:00,68.3,61.4,30.15,SSE,152,0.9,7.4,78,0.00,,,-99.99,Meteorologica,2013-08-16 15:30:00,
2013-08-16 10:35:00,68.4,61.4,30.15,SSW,204,0.0,3.4,78,0.00,,,-99.99,Meteorologica,2013-08-16 15:35:00,
2013-08-16 10:40:00,68.4,61.3,30.15,South,182,0.0,3.5,77,0.00,,,-99.99,Meteorologica,2013-08-16 15:40:00,
2013-08-16 10:45:00,68.5,61.3,30.15,South,169,0.0,7.5,77,0.00,,,-99.99,Meteorologica,2013-08-16 15:45:00,
2013-08-16 10:50:00,68.7,61.3,30.15,ESE,103,0.1,8.7,76,0.00,,,-99.99,Meteorologica,2013-08-16 15:50:00,
2013-08-16 10:55:00,69.1,61.4,30.14,SW,228,2.6,9.1,76,0.00,,,-99.99,Meteorologica,2013-08-16 15:55:00,
2013-08-16 11:00:00,69.5,61.6,30.15,ESE,112,2.8,6.0,75,0.00,,,-99.99,Meteorologica,2013-08-16 16:00:00,
2013-08-16 11:05:00,69.8,61.1,30.15,NE,50,3.3,8.0,73,0.00,,,-99.99,Meteorologica,2013-08-16 16:05:00,
2013-08-16 11:10:00,70.3,61.8,30.15,SE,146,1.5,6.3,74,0.00,,,-99.99,Meteorologica,2013-08-16 16:10:00,
2013-08-16 11:15:00,70.3,61.4,30.15,SW,223,0.8,7.5,73,0.00,,,-99.99,Meteorologica,2013-08-16 16:15:00,
2013-08-16 11:20:00,70.2,61.1,30.15,SW,214,4.6,8.6,72,0.00,,,-99.99,Meteorologica,2013-08-16 16:20:00,
2013-08-16 11:25:00,70.2,61.1,30.15,SSE,155,2.3,7.1,72,0.00,,,-99.99,Meteorologica,2013-08-16 16:25:00,
2013-08-16 11:30:00,70.4,61.4,30.15,ESE,122,1.4,7.6,72,0.00,,,-99.99,Meteorologica,2013-08-16 16:30:00,
2013-08-16 11:35:00,70.5,61.4,30.15,ESE,114,0.0,7.8,72,0.00,,,-99.99,Meteorologica,2013-08-16 16:35:00,
2013-08-16 11:40:00,70.8,61.8,30.15,East,79,1.8,6.6,72,0.00,,,-99.99,Meteorologica,2013-08-16 16:40:00,
2013-08-16 11:45:00,71.2,61.4,30.15,South,177,2.4,5.0,70,0.00,,,-99.99,Meteorologica,2013-08-16 16:45:00,
2013-08-16 11:50:00,71.2,62.1,30.15,SE,124,1.6,6.6,72,0.00,,,-99.99,Meteorologica,2013-08-16 16:50:00,
2013-08-16 11:55:00,71.5,62.7,30.15,South,184,0.0,6.1,73,0.00,,,-99.99,Meteorologica,2013-08-16 16:55:00,
2013-08-16 12:00:00,71.5,62.1,30.15,ENE,62,0.3,6.3,71,0.00,,,-99.99,Meteorologica,2013-08-16 17:00:00,
2013-08-16 12:05:00,71.0,61.6,30.16,East,88,0.1,4.8,72,0.00,,,-99.99,Meteorologica,2013-08-16 17:05:00,
2013-08-16 12:10:00,70.7,62.1,30.15,East,88,0.0,0.0,73,0.00,,,-99.99,Meteorologica,2013-08-16 17:10:00,
2013-08-16 12:15:00,70.6,61.6,30.15,West,265,1.6,6.9,73,0.00,,,-99.99,Meteorologica,2013-08-16 17:15:00,
2013-08-16 12:20:00,70.6,62.2,30.15,South,183,1.6,5.3,74,0.00,,,-99.99,Meteorologica,2013-08-16 17:20:00,
2013-08-16 12:25:00,70.9,62.4,30.16,South,189,1.5,4.7,74,0.00,,,-99.99,Meteorologica,2013-08-16 17:25:00,
2013-08-16 12:30:00,71.1,62.1,30.15,SE,145,4.6,8.7,72,0.00,,,-99.99,Meteorologica,2013-08-16 17:30:00,
2013-08-16 12:35:00,71.3,62.1,30.15,NNE,26,0.0,3.2,72,0.00,,,-99.99,Meteorologica,2013-08-16 17:35:00,
2013-08-16 12:40:00,71.5,61.4,30.15,NW,321,1.5,5.9,70,0.00,,,-99.99,Meteorologica,2013-08-16 17:40:00,
2013-08-16 12:45:00,71.8,62.1,30.14,SSE,163,3.7,8.1,71,0.00,,,-99.99,Meteorologica,2013-08-16 17:45:00,
2013-08-16 12:50:00,72.2,61.6,30.15,South,186,3.1,8.5,68,0.00,,,-99.99,Meteorologica,2013-08-16 17:50:00,
2013-08-16 12:55:00,72.1,61.6,30.15,SSW,203,3.3,8.4,69,0.00,,,-99.99,Meteorologica,2013-08-16 17:55:00,
2013-08-16 13:00:00,72.4,61.8,30.15,SE,132,0.3,7.3,68,0.00,,,-99.99,Meteorologica,2013-08-16 18:00:00,
2013-08-16 13:05:00,72.6,62.4,30.14,SSW,213,0.0,5.8,69,0.00,,,-99.99,Meteorologica,2013-08-16 18:05:00,
2013-08-16 13:10:00,72.9,62.2,30.14,ESE,107,0.0,6.3,68,0.00,,,-99.99,Meteorologica,2013-08-16 18:10:00,
2013-08-16 13:15:00,72.8,62.0,30.14,East,95,0.0,5.6,68,0.00,,,-99.99,Meteorologica,2013-08-16 18:15:00,
2013-08-16 13:20:00,73.0,61.9,30.14,WSW,251,2.2,6.4,67,0.00,,,-99.99,Meteorologica,2013-08-16 18:20:00,
2013-08-16 13:25:00,73.4,61.9,30.14,East,83,2.7,9.6,66,0.00,,,-99.99,Meteorologica,2013-08-16 18:25:00,
2013-08-16 13:30:00,73.8,62.2,30.14,South,172,0.0,6.6,66,0.00,,,-99.99,Meteorologica,2013-08-16 18:30:00,
2013-08-16 13:35:00,74.8,62.5,30.13,ESE,121,0.7,9.2,65,0.00,,,-99.99,Meteorologica,2013-08-16 18:35:00,
2013-08-16 13:40:00,75.5,62.8,30.14,South,187,0.0,8.9,64,0.00,,,-99.99,Meteorologica,2013-08-16 18:40:00,
2013-08-16 13:45:00,75.8,62.4,30.13,SE,128,1.4,6.9,62,0.00,,,-99.99,Meteorologica,2013-08-16 18:45:00,
2013-08-16 13:50:00,75.5,62.4,30.13,SSE,148,4.9,9.9,63,0.00,,,-99.99,Meteorologica,2013-08-16 18:50:00,
2013-08-16 13:55:00,75.2,61.9,30.13,WSW,244,1.7,7.0,62,0.00,,,-99.99,Meteorologica,2013-08-16 18:55:00,
2013-08-16 14:00:00,75.3,62.1,30.13,ESE,104,1.3,6.8,63,0.00,,,-99.99,Meteorologica,2013-08-16 19:00:00,
2013-08-16 14:05:00,75.4,62.6,30.13,ESE,117,0.0,6.6,64,0.00,,,-99.99,Meteorologica,2013-08-16 19:05:00,
2013-08-16 14:10:00,75.3,61.6,30.13,SW,219,2.5,6.9,62,0.00,,,-99.99,Meteorologica,2013-08-16 19:10:00,
2013-08-16 14:15:00,76.0,62.0,30.12,East,98,0.8,5.8,61,0.00,,,-99.99,Meteorologica,2013-08-16 19:15:00,
2013-08-16 14:20:00,76.3,61.6,30.12,SE,145,4.2,10.7,59,0.00,,,-99.99,Meteorologica,2013-08-16 19:20:00,
2013-08-16 14:25:00,76.6,61.4,30.12,SW,234,6.6,9.5,58,0.00,,,-99.99,Meteorologica,2013-08-16 19:25:00,
2013-08-16 14:30:00,76.2,62.0,30.12,SSW,207,4.2,9.1,60,0.00,,,-99.99,Meteorologica,2013-08-16 19:30:00,
2013-08-16 14:35:00,76.1,61.7,30.13,SE,135,1.4,8.0,61,0.00,,,-99.99,Meteorologica,2013-08-16 19:35:00,
2013-08-16 14:40:00,76.6,61.9,30.12,SSE,151,3.0,9.7,60,0.00,,,-99.99,Meteorologica,2013-08-16 19:40:00,
2013-08-16 14:45:00,76.7,62.2,30.12,SW,223,1.9,10.8,60,0.00,,,-99.99,Meteorologica,2013-08-16 19:45:00,
2013-08-16 14:50:00,77.0,62.9,30.12,SSW,201,1.6,10.9,61,0.00,,,-99.99,Meteorologica,2013-08-16 19:50:00,
2013-08-16 14:55:00,77.0,62.0,30.12,SSE,159,4.9,10.7,59,0.00,,,-99.99,Meteorologica,2013-08-16 19:55:00,
2013-08-16 15:00:00,76.9,62.0,30.12,East,81,1.8,8.1,59,0.00,,,-99.99,Meteorologica,2013-08-16 20:00:00,
2013-08-16 15:05:00,76.8,61.7,30.12,SSE,167,0.4,9.4,59,0.00,,,-99.99,Meteorologica,2013-08-16 20:05:00,
2013-08-16 15:10:00,76.6,62.1,30.12,SSE,148,0.8,5.0,60,0.00,,,-99.99,Meteorologica,2013-08-16 20:10:00,
2013-08-16 15:15:00,76.8,61.8,30.11,SSE,148,0.0,0.0,60,0.00,,,-99.99,Meteorologica,2013-08-16 20:15:00,
2013-08-16 15:20:00,76.7,62.0,30.11,South,179,2.9,8.5,60,0.00,,,-99.99,Meteorologica,2013-08-16 20:20:00,
2013-08-16 15:25:00,76.8,62.8,30.11,East,88,0.0,4.3,61,0.00,,,-99.99,Meteorologica,2013-08-16 20:25:00,
2013-08-16 15:30:00,77.5,63.2,30.11,SSW,206,1.3,6.5,61,0.00,,,-99.99,Meteorologica,2013-08-16 20:30:00,
2013-08-16 15:35:00,77.0,62.3,30.12,SW,223,2.4,7.3,60,0.00,,,-99.99,Meteorologica,2013-08-16 20:35:00,
2013-08-16 15:40:00,77.0,62.8,30.11,South,184,2.0,6.1,61,0.00,,,-99.99,Meteorologica,2013-08-16 20:40:00,
2013-08-16 15:45:00,76.5,63.1,30.12,ESE,107,0.2,5.4,62,0.00,,,-99.99,Meteorologica,2013-08-16 20:45:00,
2013-08-16 15:50:00,76.4,63.3,30.12,SE,127,1.7,6.5,63,0.00,,,-99.99,Meteorologica,2013-08-16 20:50:00,
2013-08-16 15:55:00,76.3,64.1,30.12,SE,136,0.0,0.0,65,0.00,,,-99.99,Meteorologica,2013-08-16 20:55:00,
2013-08-16 16:00:00,75.7,63.5,30.12,ESE,108,0.0,5.1,65,0.00,,,-99.99,Meteorologica,2013-08-16 21:00:00,
2013-08-16 16:05:00,75.9,63.7,30.12,NNE,22,0.4,6.0,65,0.00,,,-99.99,Meteorologica,2013-08-16 21:05:00,
2013-08-16 16:10:00,75.8,62.7,30.12,SSW,193,1.3,4.6,63,0.00,,,-99.99,Meteorologica,2013-08-16 21:10:00,
2013-08-16 16:15:00,75.4,62.9,30.12,SSW,193,0.0,0.0,65,0.00,,,-99.99,Meteorologica,2013-08-16 21:15:00,
2013-08-16 16:20:00,75.7,63.1,30.12,SE,131,4.1,10.9,64,0.00,,,-99.99,Meteorologica,2013-08-16 21:20:00,
2013-08-16 16:25:00,75.6,63.0,30.12,South,173,0.0,6.1,64,0.00,,,-99.99,Meteorologica,2013-08-16 21:25:00,
2013-08-16 16:30:00,75.5,63.2,30.12,North,5,0.0,3.4,65,0.00,,,-99.99,Meteorologica,2013-08-16 21:30:00,
2013-08-16 16:35:00,75.5,62.9,30.12,North,5,0.0,3.0,64,0.00,,,-99.99,Meteorologica,2013-08-16 21:35:00,
2013-08-16 16:40:00,75.4,63.4,30.12,SW,214,0.0,5.5,65,0.00,,,-99.99,Meteorologica,2013-08-16 21:40:00,
2013-08-16 16:45:00,75.8,63.9,30.12,ESE,103,0.2,4.7,66,0.00,,,-99.99,Meteorologica,2013-08-16 21:45:00,
2013-08-16 16:50:00,75.8,63.5,30.12,South,191,0.4,4.9,65,0.00,,,-99.99,Meteorologica,2013-08-16 21:50:00,
2013-08-16 16:55:00,75.4,63.6,30.12,SSE,149,0.0,3.3,66,0.00,,,-99.99,Meteorologica,2013-08-16 21:55:00,
2013-08-16 17:00:00,75.0,63.6,30.13,East,86,1.2,3.5,67,0.00,,,-99.99,Meteorologica,2013-08-16 22:00:00,
2013-08-16 17:05:00,75.1,63.6,30.13,NE,50,0.0,4.6,67,0.00,,,-99.99,Meteorologica,2013-08-16 22:05:00,
2013-08-16 17:10:00,74.8,63.2,30.12,NE,50,0.0,0.0,66,0.00,,,-99.99,Meteorologica,2013-08-16 22:10:00,
2013-08-16 17:15:00,74.9,63.7,30.12,ENE,70,0.0,3.3,67,0.00,,,-99.99,Meteorologica,2013-08-16 22:15:00,
2013-08-16 17:20:00,75.0,63.8,30.12,South,191,1.2,6.4,67,0.00,,,-99.99,Meteorologica,2013-08-16 22:20:00,
2013-08-16 17:25:00,75.0,63.8,30.13,East,80,0.6,5.6,67,0.00,,,-99.99,Meteorologica,2013-08-16 22:25:00,
2013-08-16 17:30:00,74.8,63.6,30.12,WNW,297,0.5,3.3,67,0.00,,,-99.99,Meteorologica,2013-08-16 22:30:00,
2013-08-16 17:35:00,74.7,63.4,30.12,West,261,0.6,4.6,67,0.00,,,-99.99,Meteorologica,2013-08-16 22:35:00,
2013-08-16 17:40:00,74.8,63.0,30.12,WSW,252,0.5,2.4,66,0.00,,,-99.99,Meteorologica,2013-08-16 22:40:00,
2013-08-16 17:45:00,74.7,63.3,30.13,East,91,0.0,4.8,67,0.00,,,-99.99,Meteorologica,2013-08-16 22:45:00,
2013-08-16 17:50:00,74.5,63.2,30.13,East,86,0.7,3.2,67,0.00,,,-99.99,Meteorologica,2013-08-16 22:50:00,
2013-08-16 17:55:00,74.6,63.0,30.13,East,80,0.0,2.3,66,0.00,,,-99.99,Meteorologica,2013-08-16 22:55:00,
2013-08-16 18:00:00,74.3,63.0,30.12,NNE,19,0.0,5.2,67,0.00,,,-99.99,Meteorologica,2013-08-16 23:00:00,
2013-08-16 18:05:00,74.2,63.0,30.12,NNE,19,0.0,0.0,67,0.00,,,-99.99,Meteorologica,2013-08-16 23:05:00,
2013-08-16 18:10:00,74.3,63.3,30.12,WSW,246,1.3,2.7,68,0.00,,,-99.99,Meteorologica,2013-08-16 23:10:00,
2013-08-16 18:15:00,74.3,63.0,30.13,North,359,0.2,4.4,67,0.00,,,-99.99,Meteorologica,2013-08-16 23:15:00,
2013-08-16 18:20:00,74.2,62.8,30.13,ESE,112,0.0,6.5,67,0.00,,,-99.99,Meteorologica,2013-08-16 23:20:00,
2013-08-16 18:25:00,74.1,62.7,30.12,ESE,112,0.0,0.0,67,0.00,,,-99.99,Meteorologica,2013-08-16 23:25:00,
2013-08-16 18:30:00,73.9,62.8,30.13,ESE,112,0.0,3.0,67,0.00,,,-99.99,Meteorologica,2013-08-16 23:30:00,
2013-08-16 18:35:00,74.0,63.3,30.13,SSE,151,0.1,5.0,68,0.00,,,-99.99,Meteorologica,2013-08-16 23:35:00,
2013-08-16 18:40:00,73.9,63.0,30.13,SSE,151,0.0,0.0,68,0.00,,,-99.99,Meteorologica,2013-08-16 23:40:00,
2013-08-16 18:45:00,74.0,63.2,30.12,SSE,151,0.0,0.0,68,0.00,,,-99.99,Meteorologica,2013-08-16 23:45:00,
2013-08-16 18:50:00,73.9,63.3,30.12,SSE,151,0.2,2.3,68,0.00,,,-99.99,Meteorologica,2013-08-16 23:50:00,
2013-08-16 18:55:00,73.9,63.5,30.13,ENE,69,1.6,6.6,69,0.00,,,-99.99,Meteorologica,2013-08-16 23:55:00,
2013-08-16 19:00:00,74.1,63.8,30.12,ENE,69,0.0,0.0,69,0.00,,,-99.99,Meteorologica,2013-08-17 00:00:00,
2013-08-16 19:05:00,73.9,63.7,30.12,ENE,69,0.0,1.4,70,0.00,,,-99.99,Meteorologica,2013-08-17 00:05:00,
2013-08-16 19:10:00,73.7,63.4,30.12,SSE,151,1.0,4.5,69,0.00,,,-99.99,Meteorologica,2013-08-17 00:10:00,
2013-08-16 19:15:00,73.5,63.6,30.12,ENE,57,0.0,4.8,70,0.00,,,-99.99,Meteorologica,2013-08-17 00:15:00,
2013-08-16 19:20:00,73.5,63.7,30.12,SSE,156,0.0,4.5,71,0.00,,,-99.99,Meteorologica,2013-08-17 00:20:00,
2013-08-16 19:25:00,73.4,63.6,30.13,SSE,156,0.0,0.0,71,0.00,,,-99.99,Meteorologica,2013-08-17 00:25:00,
2013-08-16 19:30:00,73.5,63.9,30.13,SE,136,0.0,1.0,71,0.00,,,-99.99,Meteorologica,2013-08-17 00:30:00,
2013-08-16 19:35:00,73.4,63.8,30.13,North,9,1.0,3.0,71,0.00,,,-99.99,Meteorologica,2013-08-17 00:35:00,
2013-08-16 19:40:00,73.3,63.7,30.13,North,11,0.0,3.4,71,0.00,,,-99.99,Meteorologica,2013-08-17 00:40:00,
2013-08-16 19:45:00,73.1,63.8,30.12,North,11,0.0,3.3,72,0.00,,,-99.99,Meteorologica,2013-08-17 00:45:00,
2013-08-16 19:50:00,73.0,64.0,30.13,North,11,0.0,0.0,72,0.00,,,-99.99,Meteorologica,2013-08-17 00:50:00,
2013-08-16 19:55:00,73.0,64.1,30.13,North,11,0.0,0.0,73,0.00,,,-99.99,Meteorologica,2013-08-17 00:55:00,
2013-08-16 20:00:00,72.8,64.0,30.13,North,11,0.0,0.0,73,0.00,,,-99.99,Meteorologica,2013-08-17 01:00:00,
2013-08-16 20:05:00,72.7,64.1,30.13,North,11,0.0,0.0,74,0.00,,,-99.99,Meteorologica,2013-08-17 01:05:00,
2013-08-16 20:10:00,72.5,64.0,30.13,North,11,0.0,0.0,74,0.00,,,-99.99,Meteorologica,2013-08-17 01:10:00,
2013-08-16 20:15:00,72.2,63.8,30.14,North,11,0.0,0.0,74,0.00,,,-99.99,Meteorologica,2013-08-17 01:15:00,
2013-08-16 20:20:00,71.9,63.7,30.14,North,11,0.0,0.0,74,0.00,,,-99.99,Meteorologica,2013-08-17 01:20:00,
2013-08-16 20:25:00,71.7,63.5,30.14,North,11,0.0,0.0,75,0.00,,,-99.99,Meteorologica,2013-08-17 01:25:00,
2013-08-16 20:30:00,71.5,63.4,30.14,North,11,0.0,0.0,75,0.00,,,-99.99,Meteorologica,2013-08-17 01:30:00,
2013-08-16 20:35:00,71.2,63.1,30.14,North,11,0.0,0.0,75,0.00,,,-99.99,Meteorologica,2013-08-17 01:35:00,
2013-08-16 20:40:00,71.1,63.0,30.14,North,11,0.0,0.0,75,0.00,,,-99.99,Meteorologica,2013-08-17 01:40:00,
2013-08-16 20:45:00,71.1,63.1,30.14,North,11,0.0,0.0,75,0.00,,,-99.99,Meteorologica,2013-08-17 01:45:00,
2013-08-16 20:50:00,71.0,63.1,30.14,North,11,0.0,0.0,75,0.00,,,-99.99,Meteorologica,2013-08-17 01:50:00,
2013-08-16 20:55:00,70.8,63.0,30.14,NNE,21,0.0,3.4,75,0.00,,,-99.99,Meteorologica,2013-08-17 01:55:00,
2013-08-16 21:00:00,70.7,63.0,30.14,NE,49,0.0,5.6,76,0.00,,,-99.99,Meteorologica,2013-08-17 02:00:00,
2013-08-16 21:05:00,70.6,62.8,30.14,North,1,0.4,2.9,75,0.00,,,-99.99,Meteorologica,2013-08-17 02:05:00,
2013-08-16 21:10:00,70.6,62.8,30.14,North,1,0.0,0.0,76,0.00,,,-99.99,Meteorologica,2013-08-17 02:10:00,
2013-08-16 21:15:00,70.5,62.7,30.15,North,1,0.0,0.0,76,0.00,,,-99.99,Meteorologica,2013-08-17 02:15:00,
2013-08-16 21:20:00,70.5,62.8,30.15,North,1,0.0,0.0,76,0.00,,,-99.99,Meteorologica,2013-08-17 02:20:00,
2013-08-16 21:25:00,70.5,62.8,30.15,North,1,0.0,0.0,76,0.00,,,-99.99,Meteorologica,2013-08-17 02:25:00,
2013-08-16 21:30:00,70.4,62.9,30.15,North,1,0.0,0.0,76,0.00,,,-99.99,Meteorologica,2013-08-17 02:30:00,
2013-08-16 21:35:00,70.1,62.7,30.15,East,84,0.0,4.4,77,0.00,,,-99.99,Meteorologica,2013-08-17 02:35:00,
2013-08-16 21:40:00,70.0,62.8,30.15,East,84,0.0,0.0,77,0.00,,,-99.99,Meteorologica,2013-08-17 02:40:00,
2013-08-16 21:45:00,69.9,62.8,30.15,East,84,0.0,0.0,77,0.00,,,-99.99,Meteorologica,2013-08-17 02:45:00,
2013-08-16 21:50:00,69.8,62.7,30.16,ENE,60,0.2,1.4,78,0.00,,,-99.99,Meteorologica,2013-08-17 02:50:00,
2013-08-16 21:55:00,69.6,62.7,30.15,ENE,60,0.0,0.0,78,0.00,,,-99.99,Meteorologica,2013-08-17 02:55:00,
2013-08-16 22:00:00,69.5,62.5,30.16,ENE,60,0.0,0.0,78,0.00,,,-99.99,Meteorologica,2013-08-17 03:00:00,
2013-08-16 22:05:00,69.4,62.6,30.15,ENE,60,0.0,0.0,78,0.00,,,-99.99,Meteorologica,2013-08-17 03:05:00,
2013-08-16 22:10:00,69.4,62.7,30.15,ENE,60,0.0,0.0,78,0.00,,,-99.99,Meteorologica,2013-08-17 03:10:00,
2013-08-16 22:15:00,69.2,62.6,30.15,ENE,60,0.0,0.0,79,0.00,,,-99.99,Meteorologica,2013-08-17 03:15:00,
2013-08-16 22:20:00,69.1,62.6,30.15,ENE,60,0.0,0.0,79,0.00,,,-99.99,Meteorologica,2013-08-17 03:20:00,
2013-08-16 22:25:00,68.9,62.5,30.15,ENE,60,0.0,0.0,79,0.00,,,-99.99,Meteorologica,2013-08-17 03:25:00,
2013-08-16 22:30:00,68.7,62.3,30.16,ENE,60,0.0,0.0,79,0.00,,,-99.99,Meteorologica,2013-08-17 03:30:00,
2013-08-16 22:35:00,68.7,62.3,30.15,ENE,60,0.0,0.0,79,0.00,,,-99.99,Meteorologica,2013-08-17 03:35:00,
2013-08-16 22:40:00,68.6,62.3,30.15,ENE,60,0.0,0.0,80,0.00,,,-99.99,Meteorologica,2013-08-17 03:40:00,
2013-08-16 22:45:00,68.4,62.0,30.15,ENE,60,0.0,1.7,79,0.00,,,-99.99,Meteorologica,2013-08-17 03:45:00,
2013-08-16 22:50:00,68.5,62.2,30.15,ENE,60,0.0,0.0,80,0.00,,,-99.99,Meteorologica,2013-08-17 03:50:00,
2013-08-16 22:55:00,68.3,62.1,30.15,ENE,60,0.0,0.0,80,0.00,,,-99.99,Meteorologica,2013-08-17 03:55:00,
2013-08-16 23:00:00,68.2,62.1,30.15,ENE,60,0.0,0.0,80,0.00,,,-99.99,Meteorologica,2013-08-17 04:00:00,
2013-08-16 23:01:00,68.2,62.2,30.15,ENE,60,0.0,0.0,81,0.00,,,-99.99,Meteorologica,2013-08-17 04:01:00,
2013-08-16 23:02:00,68.1,62.1,30.15,ENE,60,0.0,0.0,81,0.00,,,-99.99,Meteorologica,2013-08-17 04:02:00,
2013-08-16 23:03:00,68.0,62.1,30.15,ENE,60,0.0,0.0,81,0.00,,,-99.99,Meteorologica,2013-08-17 04:03:00,
2013-08-16 23:04:00,68.0,62.2,30.15,ENE,60,0.0,0.0,81,0.00,,,-99.99,Meteorologica,2013-08-17 04:04:00,
2013-08-16 23:09:00,67.9,62.2,30.15,ENE,60,0.0,0.0,81,0.00,,,-99.99,Meteorologica,2013-08-17 04:09:00,
2013-08-16 23:12:00,67.8,62.2,30.15,South,169,0.0,3.4,82,0.00,,,-99.99,Meteorologica,2013-08-17 04:12:00,
2013-08-16 23:17:00,67.5,62.0,30.15,South,169,0.0,0.0,82,0.00,,,-99.99,Meteorologica,2013-08-17 04:17:00,
2013-08-16 23:22:00,67.4,62.0,30.15,South,169,0.0,0.0,82,0.00,,,-99.99,Meteorologica,2013-08-17 04:22:00,
2013-08-16 23:27:00,67.1,61.9,30.16,South,169,0.0,0.0,83,0.00,,,-99.99,Meteorologica,2013-08-17 04:27:00,
2013-08-16 23:32:00,66.9,61.8,30.15,South,169,0.0,0.0,83,0.00,,,-99.99,Meteorologica,2013-08-17 04:32:00,
2013-08-16 23:37:00,66.7,61.7,30.15,South,169,0.0,0.0,84,0.00,,,-99.99,Meteorologica,2013-08-17 04:37:00,
2013-08-16 23:42:00,66.5,61.7,30.15,South,169,0.0,0.0,84,0.00,,,-99.99,Meteorologica,2013-08-17 04:42:00,
2013-08-16 23:47:00,66.2,61.6,30.15,South,169,0.0,0.0,85,0.00,,,-99.99,Meteorologica,2013-08-17 04:47:00,
2013-08-16 23:52:00,66.1,61.6,30.15,South,169,0.0,0.0,85,0.00,,,-99.99,Meteorologica,2013-08-17 04:52:00,
2013-08-16 23:57:00,65.9,61.6,30.15,South,169,0.0,0.0,86,0.00,,,-99.99,Meteorologica,2013-08-17 04:57:00,